Macachin, Argentina
Current Conditions -  °F | °C
As of 5:00 AM on Friday 19 Dec 2014 (Local Time) from SAZN Reporting Station
Clear Clear  
Wind Chill: 70°   Ceiling: Unl
Heat Index: 70°   Visibility: 6mi
Dew Point: 32°   Wind: 12mph
Humidity: 25%   Direction: 270°W
Pressure: 29.59"   Gusts: NA
Location:  37.15°S, 63.65°W
Report Text: SAZN 190800Z 27010KT CAVOK 21/00 Q1002
Loading
Personal Weather Stations






























Interactive Weather Map New forecast layout! Learn more

10-Day Weather Forecast

Advertisements
Track Severe Weather on mobile